sensor_id;sensor_type;location;lat;lon;timestamp;pressure;altitude;pressure_sealevel;temperature;humidity
16806;BME280;8520;50.102;20.010;2023-04-27T00:02:23;98347.75;;;3.52;72.33
16806;BME280;8520;50.102;20.010;2023-04-27T00:04:51;98340.28;;;3.69;71.75
16806;BME280;8520;50.102;20.010;2023-04-27T00:07:20;98341.75;;;3.57;71.83
16806;BME280;8520;50.102;20.010;2023-04-27T00:09:48;98352.19;;;3.75;71.93
16806;BME280;8520;50.102;20.010;2023-04-27T00:12:18;98351.06;;;4.01;70.77
16806;BME280;8520;50.102;20.010;2023-04-27T00:14:47;98343.19;;;3.91;71.33
16806;BME280;8520;50.102;20.010;2023-04-27T00:17:15;98335.06;;;3.74;71.59
16806;BME280;8520;50.102;20.010;2023-04-27T00:19:43;98341.97;;;3.92;71.20
16806;BME280;8520;50.102;20.010;2023-04-27T00:22:13;98339.88;;;3.83;71.97
16806;BME280;8520;50.102;20.010;2023-04-27T00:24:41;98338.94;;;4.02;71.85
16806;BME280;8520;50.102;20.010;2023-04-27T00:27:09;98342.63;;;3.83;72.37
16806;BME280;8520;50.102;20.010;2023-04-27T00:29:40;98339.13;;;3.82;72.04
16806;BME280;8520;50.102;20.010;2023-04-27T00:32:09;98344.72;;;3.92;72.06
16806;BME280;8520;50.102;20.010;2023-04-27T00:34:38;98347.03;;;3.64;73.08
16806;BME280;8520;50.102;20.010;2023-04-27T00:37:06;98341.97;;;3.79;72.51
16806;BME280;8520;50.102;20.010;2023-04-27T00:39:34;98335.66;;;3.53;73.27
16806;BME280;8520;50.102;20.010;2023-04-27T00:42:02;98340.16;;;3.60;73.11
16806;BME280;8520;50.102;20.010;2023-04-27T00:44:30;98344.50;;;3.99;71.79
16806;BME280;8520;50.102;20.010;2023-04-27T00:47:00;98338.41;;;4.07;71.60
16806;BME280;8520;50.102;20.010;2023-04-27T00:49:28;98341.97;;;3.92;72.42
16806;BME280;8520;50.102;20.010;2023-04-27T00:51:56;98335.09;;;3.87;71.72
16806;BME280;8520;50.102;20.010;2023-04-27T00:54:24;98340.25;;;3.98;71.64
16806;BME280;8520;50.102;20.010;2023-04-27T00:56:53;98332.97;;;4.20;71.15
16806;BME280;8520;50.102;20.010;2023-04-27T00:59:21;98335.44;;;4.02;72.25
16806;BME280;8520;50.102;20.010;2023-04-27T01:01:50;98341.19;;;4.33;71.33
16806;BME280;8520;50.102;20.010;2023-04-27T01:04:20;98349.44;;;4.04;71.52
16806;BME280;8520;50.102;20.010;2023-04-27T01:06:50;98348.81;;;4.12;71.82
16806;BME280;8520;50.102;20.010;2023-04-27T01:09:18;98340.75;;;3.80;72.32
16806;BME280;8520;50.102;20.010;2023-04-27T01:11:48;98348.75;;;3.87;72.79
16806;BME280;8520;50.102;20.010;2023-04-27T01:14:16;98350.75;;;4.12;71.90
16806;BME280;8520;50.102;20.010;2023-04-27T01:16:45;98356.13;;;3.74;72.44
16806;BME280;8520;50.102;20.010;2023-04-27T01:19:13;98354.09;;;3.91;72.42
16806;BME280;8520;50.102;20.010;2023-04-27T01:21:43;98358.16;;;3.99;72.25
16806;BME280;8520;50.102;20.010;2023-04-27T01:24:13;98351.22;;;4.23;71.36
16806;BME280;8520;50.102;20.010;2023-04-27T01:26:42;98357.22;;;4.05;72.09
16806;BME280;8520;50.102;20.010;2023-04-27T01:29:10;98363.28;;;4.51;70.86
16806;BME280;8520;50.102;20.010;2023-04-27T01:31:40;98362.06;;;4.39;70.81
16806;BME280;8520;50.102;20.010;2023-04-27T01:34:08;98363.13;;;4.29;71.46
16806;BME280;8520;50.102;20.010;2023-04-27T01:36:36;98355.50;;;4.24;71.48
16806;BME280;8520;50.102;20.010;2023-04-27T01:39:04;98359.47;;;4.49;70.96
16806;BME280;8520;50.102;20.010;2023-04-27T01:41:36;98355.81;;;4.39;70.88
16806;BME280;8520;50.102;20.010;2023-04-27T01:44:04;98357.81;;;4.77;70.38
16806;BME280;8520;50.102;20.010;2023-04-27T01:46:33;98359.00;;;4.63;70.10
16806;BME280;8520;50.102;20.010;2023-04-27T01:49:01;98362.63;;;4.60;70.24
16806;BME280;8520;50.102;20.010;2023-04-27T01:51:29;98359.88;;;4.60;70.08
16806;BME280;8520;50.102;20.010;2023-04-27T01:53:58;98362.31;;;4.58;70.63
16806;BME280;8520;50.102;20.010;2023-04-27T01:56:26;98367.84;;;4.54;70.56
16806;BME280;8520;50.102;20.010;2023-04-27T01:58:56;98367.50;;;4.14;71.57
16806;BME280;8520;50.102;20.010;2023-04-27T02:01:24;98374.34;;;4.06;72.13
16806;BME280;8520;50.102;20.010;2023-04-27T02:03:52;98369.28;;;4.46;71.07
16806;BME280;8520;50.102;20.010;2023-04-27T02:06:20;98371.91;;;4.62;70.01
16806;BME280;8520;50.102;20.010;2023-04-27T02:08:49;98364.03;;;4.77;69.89
16806;BME280;8520;50.102;20.010;2023-04-27T02:11:17;98366.75;;;4.26;71.14
16806;BME280;8520;50.102;20.010;2023-04-27T02:13:45;98373.91;;;4.07;71.85
16806;BME280;8520;50.102;20.010;2023-04-27T02:16:15;98371.25;;;3.91;72.22
16806;BME280;8520;50.102;20.010;2023-04-27T02:18:44;98373.22;;;3.91;72.29
16806;BME280;8520;50.102;20.010;2023-04-27T02:21:12;98371.16;;;3.66;73.17
16806;BME280;8520;50.102;20.010;2023-04-27T02:23:40;98366.41;;;4.24;71.79
16806;BME280;8520;50.102;20.010;2023-04-27T02:26:15;98367.06;;;4.28;71.75
16806;BME280;8520;50.102;20.010;2023-04-27T02:28:43;98365.09;;;4.16;71.35
16806;BME280;8520;50.102;20.010;2023-04-27T02:31:13;98367.88;;;4.00;72.20
16806;BME280;8520;50.102;20.010;2023-04-27T02:33:42;98361.91;;;4.05;72.51
16806;BME280;8520;50.102;20.010;2023-04-27T02:36:11;98367.81;;;4.03;72.35
16806;BME280;8520;50.102;20.010;2023-04-27T02:38:39;98363.16;;;3.88;73.14
16806;BME280;8520;50.102;20.010;2023-04-27T02:41:09;98374.88;;;4.01;74.16
16806;BME280;8520;50.102;20.010;2023-04-27T02:43:37;98372.28;;;4.10;73.77
16806;BME280;8520;50.102;20.010;2023-04-27T02:46:05;98374.09;;;3.88;74.31
16806;BME280;8520;50.102;20.010;2023-04-27T02:48:33;98370.16;;;3.89;74.51
16806;BME280;8520;50.102;20.010;2023-04-27T02:51:04;98370.09;;;3.47;76.06
16806;BME280;8520;50.102;20.010;2023-04-27T02:53:32;98375.78;;;3.69;76.06
16806;BME280;8520;50.102;20.010;2023-04-27T02:56:01;98368.34;;;3.69;76.34
16806;BME280;8520;50.102;20.010;2023-04-27T02:58:29;98369.09;;;3.99;75.79
16806;BME280;8520;50.102;20.010;2023-04-27T03:00:57;98371.38;;;3.88;76.15
16806;BME280;8520;50.102;20.010;2023-04-27T03:03:25;98372.47;;;4.03;75.73
16806;BME280;8520;50.102;20.010;2023-04-27T03:05:53;98370.69;;;3.54;76.51
16806;BME280;8520;50.102;20.010;2023-04-27T03:08:23;98385.53;;;3.53;77.12
16806;BME280;8520;50.102;20.010;2023-04-27T03:10:51;98375.00;;;3.39;77.23
16806;BME280;8520;50.102;20.010;2023-04-27T03:13:19;98378.03;;;3.87;76.23
16806;BME280;8520;50.102;20.010;2023-04-27T03:15:48;98378.78;;;3.87;75.97
16806;BME280;8520;50.102;20.010;2023-04-27T03:18:18;98386.28;;;3.83;76.29
16806;BME280;8520;50.102;20.010;2023-04-27T03:20:47;98391.25;;;3.59;77.33
16806;BME280;8520;50.102;20.010;2023-04-27T03:23:15;98392.78;;;4.02;75.85
16806;BME280;8520;50.102;20.010;2023-04-27T03:25:44;98390.81;;;3.61;76.53
16806;BME280;8520;50.102;20.010;2023-04-27T03:28:14;98390.59;;;3.97;76.20
16806;BME280;8520;50.102;20.010;2023-04-27T03:30:42;98390.47;;;3.59;77.31
16806;BME280;8520;50.102;20.010;2023-04-27T03:33:10;98396.41;;;3.99;76.52
16806;BME280;8520;50.102;20.010;2023-04-27T03:35:40;98397.94;;;3.71;77.03
16806;BME280;8520;50.102;20.010;2023-04-27T03:38:08;98399.44;;;3.43;77.40
16806;BME280;8520;50.102;20.010;2023-04-27T03:40:36;98403.44;;;3.83;76.72
16806;BME280;8520;50.102;20.010;2023-04-27T03:43:05;98404.69;;;3.66;77.33
16806;BME280;8520;50.102;20.010;2023-04-27T03:45:33;98405.66;;;3.89;76.42
16806;BME280;8520;50.102;20.010;2023-04-27T03:48:02;98409.66;;;3.84;76.04
16806;BME280;8520;50.102;20.010;2023-04-27T03:50:30;98407.84;;;3.94;76.42
16806;BME280;8520;50.102;20.010;2023-04-27T03:52:59;98415.25;;;3.93;77.29
16806;BME280;8520;50.102;20.010;2023-04-27T03:55:27;98409.94;;;4.44;75.76
16806;BME280;8520;50.102;20.010;2023-04-27T03:57:55;98416.50;;;4.47;75.37
16806;BME280;8520;50.102;20.010;2023-04-27T04:00:25;98419.16;;;4.08;76.13
16806;BME280;8520;50.102;20.010;2023-04-27T04:02:53;98418.81;;;4.61;74.81
16806;BME280;8520;50.102;20.010;2023-04-27T04:05:21;98408.88;;;4.67;74.37
16806;BME280;8520;50.102;20.010;2023-04-27T04:07:49;98418.25;;;4.53;73.65
16806;BME280;8520;50.102;20.010;2023-04-27T04:10:18;98420.59;;;4.67;73.78
16806;BME280;8520;50.102;20.010;2023-04-27T04:12:47;98425.50;;;4.72;74.12
16806;BME280;8520;50.102;20.010;2023-04-27T04:15:15;98439.34;;;4.11;76.14
16806;BME280;8520;50.102;20.010;2023-04-27T04:17:45;98440.63;;;4.35;76.21
16806;BME280;8520;50.102;20.010;2023-04-27T04:20:16;98434.84;;;4.33;76.29
16806;BME280;8520;50.102;20.010;2023-04-27T04:22:44;98436.75;;;4.20;75.66
16806;BME280;8520;50.102;20.010;2023-04-27T04:25:12;98434.84;;;4.33;75.87
16806;BME280;8520;50.102;20.010;2023-04-27T04:27:40;98438.97;;;3.67;77.23
16806;BME280;8520;50.102;20.010;2023-04-27T04:30:09;98440.66;;;4.06;76.97
16806;BME280;8520;50.102;20.010;2023-04-27T04:32:37;98443.69;;;3.96;77.15
16806;BME280;8520;50.102;20.010;2023-04-27T04:35:07;98445.88;;;4.01;76.20
16806;BME280;8520;50.102;20.010;2023-04-27T04:37:37;98447.41;;;3.73;77.75
16806;BME280;8520;50.102;20.010;2023-04-27T04:40:06;98442.66;;;4.19;75.44
16806;BME280;8520;50.102;20.010;2023-04-27T04:42:37;98452.31;;;4.36;76.74
16806;BME280;8520;50.102;20.010;2023-04-27T04:45:07;98451.38;;;3.84;77.24
16806;BME280;8520;50.102;20.010;2023-04-27T04:47:36;98448.25;;;4.28;76.85
16806;BME280;8520;50.102;20.010;2023-04-27T04:50:07;98446.47;;;4.63;75.57
16806;BME280;8520;50.102;20.010;2023-04-27T04:52:36;98452.03;;;4.05;76.61
16806;BME280;8520;50.102;20.010;2023-04-27T04:55:06;98453.91;;;4.21;76.02
16806;BME280;8520;50.102;20.010;2023-04-27T04:57:34;98453.72;;;4.28;75.90
16806;BME280;8520;50.102;20.010;2023-04-27T05:00:05;98455.00;;;4.52;74.58
16806;BME280;8520;50.102;20.010;2023-04-27T05:02:37;98445.59;;;4.53;74.83
16806;BME280;8520;50.102;20.010;2023-04-27T05:05:08;98445.84;;;4.71;73.95
16806;BME280;8520;50.102;20.010;2023-04-27T05:07:36;98446.06;;;4.90;72.97
16806;BME280;8520;50.102;20.010;2023-04-27T05:10:04;98452.19;;;4.81;73.26
16806;BME280;8520;50.102;20.010;2023-04-27T05:12:32;98448.63;;;4.97;72.44
16806;BME280;8520;50.102;20.010;2023-04-27T05:15:01;98461.16;;;4.82;73.48
16806;BME280;8520;50.102;20.010;2023-04-27T05:17:29;98473.66;;;4.41;74.81
16806;BME280;8520;50.102;20.010;2023-04-27T05:19:57;98467.25;;;4.60;74.99
16806;BME280;8520;50.102;20.010;2023-04-27T05:22:26;98475.41;;;4.48;74.84
16806;BME280;8520;50.102;20.010;2023-04-27T05:24:54;98472.41;;;4.84;74.61
16806;BME280;8520;50.102;20.010;2023-04-27T05:27:22;98477.50;;;4.98;75.01
16806;BME280;8520;50.102;20.010;2023-04-27T05:29:50;98479.97;;;4.38;76.19
16806;BME280;8520;50.102;20.010;2023-04-27T05:32:19;98481.00;;;4.15;76.86
16806;BME280;8520;50.102;20.010;2023-04-27T05:34:47;98488.31;;;4.47;75.73
16806;BME280;8520;50.102;20.010;2023-04-27T05:37:15;98485.13;;;4.36;76.58
16806;BME280;8520;50.102;20.010;2023-04-27T05:39:44;98487.72;;;4.68;75.27
16806;BME280;8520;50.102;20.010;2023-04-27T05:42:12;98492.63;;;4.61;75.10
16806;BME280;8520;50.102;20.010;2023-04-27T05:44:40;98486.50;;;4.69;75.09
16806;BME280;8520;50.102;20.010;2023-04-27T05:47:09;98495.75;;;5.01;74.57
16806;BME280;8520;50.102;20.010;2023-04-27T05:49:37;98492.22;;;4.88;74.67
16806;BME280;8520;50.102;20.010;2023-04-27T05:52:06;98501.91;;;4.51;75.44
16806;BME280;8520;50.102;20.010;2023-04-27T05:54:34;98506.19;;;4.64;74.96
16806;BME280;8520;50.102;20.010;2023-04-27T05:57:03;98501.28;;;4.72;75.10
16806;BME280;8520;50.102;20.010;2023-04-27T05:59:31;98506.03;;;4.55;75.00
16806;BME280;8520;50.102;20.010;2023-04-27T06:01:59;98495.00;;;5.01;74.88
16806;BME280;8520;50.102;20.010;2023-04-27T06:04:27;98485.91;;;5.29;73.58
16806;BME280;8520;50.102;20.010;2023-04-27T06:06:58;98497.94;;;5.44;71.98
16806;BME280;8520;50.102;20.010;2023-04-27T06:09:26;98499.69;;;5.98;70.90
16806;BME280;8520;50.102;20.010;2023-04-27T06:11:55;98500.97;;;5.72;71.34
16806;BME280;8520;50.102;20.010;2023-04-27T06:14:26;98494.84;;;5.55;71.52
16806;BME280;8520;50.102;20.010;2023-04-27T06:16:55;98500.22;;;5.59;71.46
16806;BME280;8520;50.102;20.010;2023-04-27T06:19:24;98497.25;;;6.00;70.88
16806;BME280;8520;50.102;20.010;2023-04-27T06:21:52;98500.16;;;6.19;69.08
16806;BME280;8520;50.102;20.010;2023-04-27T06:24:21;98502.00;;;6.22;69.32
16806;BME280;8520;50.102;20.010;2023-04-27T06:26:49;98498.44;;;6.34;68.05
16806;BME280;8520;50.102;20.010;2023-04-27T06:29:17;98500.38;;;6.77;67.64
16806;BME280;8520;50.102;20.010;2023-04-27T06:31:46;98500.41;;;7.08;67.46
16806;BME280;8520;50.102;20.010;2023-04-27T06:34:14;98505.38;;;7.32;67.33
16806;BME280;8520;50.102;20.010;2023-04-27T06:36:42;98498.31;;;7.21;66.54
16806;BME280;8520;50.102;20.010;2023-04-27T06:39:11;98492.69;;;7.65;65.41
16806;BME280;8520;50.102;20.010;2023-04-27T06:41:39;98503.88;;;7.89;64.69
16806;BME280;8520;50.102;20.010;2023-04-27T06:44:17;98510.34;;;7.46;64.55
16806;BME280;8520;50.102;20.010;2023-04-27T06:46:46;98508.78;;;7.36;64.60
16806;BME280;8520;50.102;20.010;2023-04-27T06:49:15;98512.66;;;7.57;64.84
16806;BME280;8520;50.102;20.010;2023-04-27T06:51:43;98510.59;;;7.97;64.16
16806;BME280;8520;50.102;20.010;2023-04-27T06:54:12;98508.56;;;7.61;65.22
16806;BME280;8520;50.102;20.010;2023-04-27T06:56:40;98511.03;;;7.87;64.28
16806;BME280;8520;50.102;20.010;2023-04-27T06:59:08;98511.44;;;7.67;64.97
16806;BME280;8520;50.102;20.010;2023-04-27T07:01:37;98508.94;;;8.27;62.71
16806;BME280;8520;50.102;20.010;2023-04-27T07:04:06;98514.31;;;9.01;61.74
16806;BME280;8520;50.102;20.010;2023-04-27T07:06:34;98503.88;;;9.14;61.03
16806;BME280;8520;50.102;20.010;2023-04-27T07:09:03;98515.50;;;8.30;61.19
16806;BME280;8520;50.102;20.010;2023-04-27T07:11:52;98511.16;;;8.84;60.80
16806;BME280;8520;50.102;20.010;2023-04-27T07:14:20;98518.09;;;8.43;60.56
16806;BME280;8520;50.102;20.010;2023-04-27T07:16:48;98518.00;;;8.97;57.57
16806;BME280;8520;50.102;20.010;2023-04-27T07:19:17;98514.56;;;9.21;57.41
16806;BME280;8520;50.102;20.010;2023-04-27T07:21:45;98519.16;;;9.57;56.54
16806;BME280;8520;50.102;20.010;2023-04-27T07:24:13;98515.66;;;9.57;56.84
16806;BME280;8520;50.102;20.010;2023-04-27T07:26:41;98513.03;;;9.86;57.01
16806;BME280;8520;50.102;20.010;2023-04-27T07:29:10;98506.13;;;10.29;56.34
16806;BME280;8520;50.102;20.010;2023-04-27T07:31:52;98528.19;;;8.46;58.12
16806;BME280;8520;50.102;20.010;2023-04-27T07:34:23;98524.66;;;8.63;58.35
16806;BME280;8520;50.102;20.010;2023-04-27T07:36:51;98511.81;;;9.21;56.68
16806;BME280;8520;50.102;20.010;2023-04-27T07:39:20;98538.41;;;8.27;59.03
16806;BME280;8520;50.102;20.010;2023-04-27T07:41:49;98530.16;;;8.54;60.14
16806;BME280;8520;50.102;20.010;2023-04-27T07:44:18;98530.25;;;8.87;57.97
16806;BME280;8520;50.102;20.010;2023-04-27T07:46:46;98529.81;;;9.40;57.06
16806;BME280;8520;50.102;20.010;2023-04-27T07:49:15;98533.06;;;9.20;56.81
16806;BME280;8520;50.102;20.010;2023-04-27T07:51:45;98538.72;;;8.56;59.11
16806;BME280;8520;50.102;20.010;2023-04-27T07:54:13;98533.84;;;8.60;57.63
16806;BME280;8520;50.102;20.010;2023-04-27T07:56:42;98528.56;;;8.90;55.99
16806;BME280;8520;50.102;20.010;2023-04-27T07:59:10;98520.94;;;9.69;54.01
16806;BME280;8520;50.102;20.010;2023-04-27T08:01:38;98512.16;;;10.57;51.54
16806;BME280;8520;50.102;20.010;2023-04-27T08:04:06;98528.16;;;9.67;53.00
16806;BME280;8520;50.102;20.010;2023-04-27T08:06:35;98522.59;;;9.76;51.60
16806;BME280;8520;50.102;20.010;2023-04-27T08:09:06;98510.28;;;10.63;51.07
16806;BME280;8520;50.102;20.010;2023-04-27T08:11:35;98514.16;;;9.79;52.34
16806;BME280;8520;50.102;20.010;2023-04-27T08:14:03;98522.66;;;9.91;51.77
16806;BME280;8520;50.102;20.010;2023-04-27T08:16:31;98512.91;;;10.04;50.16
16806;BME280;8520;50.102;20.010;2023-04-27T08:18:59;98521.34;;;9.77;50.35
16806;BME280;8520;50.102;20.010;2023-04-27T08:21:28;98532.97;;;9.48;50.93
16806;BME280;8520;50.102;20.010;2023-04-27T08:23:56;98538.38;;;9.42;52.45
16806;BME280;8520;50.102;20.010;2023-04-27T08:26:25;98519.78;;;9.85;51.24
16806;BME280;8520;50.102;20.010;2023-04-27T08:28:53;98529.34;;;9.99;50.13
16806;BME280;8520;50.102;20.010;2023-04-27T08:31:23;98535.84;;;10.10;49.31
16806;BME280;8520;50.102;20.010;2023-04-27T08:33:52;98518.22;;;10.32;48.78
16806;BME280;8520;50.102;20.010;2023-04-27T08:36:21;98527.56;;;9.87;50.14
16806;BME280;8520;50.102;20.010;2023-04-27T08:38:51;98527.22;;;10.71;48.81
16806;BME280;8520;50.102;20.010;2023-04-27T08:41:19;98520.34;;;10.66;49.49
16806;BME280;8520;50.102;20.010;2023-04-27T08:43:50;98527.31;;;10.23;50.55
16806;BME280;8520;50.102;20.010;2023-04-27T08:46:19;98540.13;;;10.11;51.35
16806;BME280;8520;50.102;20.010;2023-04-27T08:48:49;98553.38;;;8.53;53.47
16806;BME280;8520;50.102;20.010;2023-04-27T08:51:18;98536.47;;;9.58;52.19
16806;BME280;8520;50.102;20.010;2023-04-27T08:53:48;98541.19;;;9.90;51.19
16806;BME280;8520;50.102;20.010;2023-04-27T08:56:17;98522.88;;;10.26;50.99
16806;BME280;8520;50.102;20.010;2023-04-27T08:58:45;98525.69;;;10.70;49.59
16806;BME280;8520;50.102;20.010;2023-04-27T09:01:15;98533.41;;;10.66;49.21
16806;BME280;8520;50.102;20.010;2023-04-27T09:03:44;98522.31;;;10.36;48.36
16806;BME280;8520;50.102;20.010;2023-04-27T09:06:13;98530.31;;;9.87;49.07
16806;BME280;8520;50.102;20.010;2023-04-27T09:08:43;98527.66;;;11.08;47.85
16806;BME280;8520;50.102;20.010;2023-04-27T09:11:12;98516.22;;;11.50;46.94
16806;BME280;8520;50.102;20.010;2023-04-27T09:13:42;98522.63;;;11.77;46.57
16806;BME280;8520;50.102;20.010;2023-04-27T09:16:12;98523.03;;;10.76;47.12
16806;BME280;8520;50.102;20.010;2023-04-27T09:18:42;98523.25;;;10.33;46.14
16806;BME280;8520;50.102;20.010;2023-04-27T09:21:21;98526.81;;;9.86;46.09
16806;BME280;8520;50.102;20.010;2023-04-27T09:23:49;98519.44;;;10.31;45.18
16806;BME280;8520;50.102;20.010;2023-04-27T09:26:19;98511.25;;;11.19;44.06
16806;BME280;8520;50.102;20.010;2023-04-27T09:28:48;98517.81;;;10.24;45.16
16806;BME280;8520;50.102;20.010;2023-04-27T09:31:17;98524.16;;;10.69;45.36
16806;BME280;8520;50.102;20.010;2023-04-27T09:33:53;98539.44;;;10.40;46.59
16806;BME280;8520;50.102;20.010;2023-04-27T09:36:22;98524.88;;;10.01;47.73
16806;BME280;8520;50.102;20.010;2023-04-27T09:38:51;98518.53;;;10.49;46.74
16806;BME280;8520;50.102;20.010;2023-04-27T09:41:20;98511.50;;;10.77;46.23
16806;BME280;8520;50.102;20.010;2023-04-27T09:43:49;98509.41;;;10.57;45.99
16806;BME280;8520;50.102;20.010;2023-04-27T09:46:18;98524.81;;;9.30;48.57
16806;BME280;8520;50.102;20.010;2023-04-27T09:48:49;98527.31;;;9.51;48.26
16806;BME280;8520;50.102;20.010;2023-04-27T09:51:18;98540.19;;;9.45;49.25
16806;BME280;8520;50.102;20.010;2023-04-27T09:53:50;98529.28;;;9.09;50.18
16806;BME280;8520;50.102;20.010;2023-04-27T09:56:28;98551.09;;;8.70;49.93
16806;BME280;8520;50.102;20.010;2023-04-27T09:59:17;98534.94;;;9.05;49.26
16806;BME280;8520;50.102;20.010;2023-04-27T10:01:53;98538.53;;;9.39;48.96
16806;BME280;8520;50.102;20.010;2023-04-27T10:04:35;98531.56;;;9.10;49.31
16806;BME280;8520;50.102;20.010;2023-04-27T10:07:07;98526.00;;;8.68;49.89
16806;BME280;8520;50.102;20.010;2023-04-27T10:09:40;98531.97;;;8.48;49.96
16806;BME280;8520;50.102;20.010;2023-04-27T10:12:17;98524.66;;;9.15;48.96
16806;BME280;8520;50.102;20.010;2023-04-27T10:14:49;98521.47;;;9.82;49.02
16806;BME280;8520;50.102;20.010;2023-04-27T10:17:18;98525.56;;;10.35;48.34
16806;BME280;8520;50.102;20.010;2023-04-27T10:19:55;98519.66;;;10.42;49.23
16806;BME280;8520;50.102;20.010;2023-04-27T10:22:36;98567.75;;;8.48;53.28
16806;BME280;8520;50.102;20.010;2023-04-27T10:25:27;98536.44;;;8.27;54.69
16806;BME280;8520;50.102;20.010;2023-04-27T10:27:57;98557.66;;;8.18;54.17
16806;BME280;8520;50.102;20.010;2023-04-27T10:30:30;98538.59;;;9.11;53.06
16806;BME280;8520;50.102;20.010;2023-04-27T10:33:04;98534.00;;;9.27;53.17
16806;BME280;8520;50.102;20.010;2023-04-27T10:35:35;98524.81;;;9.20;53.67
16806;BME280;8520;50.102;20.010;2023-04-27T10:38:05;98530.78;;;9.19;53.04
16806;BME280;8520;50.102;20.010;2023-04-27T10:40:34;98520.16;;;9.45;51.45
16806;BME280;8520;50.102;20.010;2023-04-27T10:43:09;98518.84;;;9.64;50.82
16806;BME280;8520;50.102;20.010;2023-04-27T10:45:38;98509.16;;;10.17;50.38
16806;BME280;8520;50.102;20.010;2023-04-27T10:48:06;98511.13;;;10.69;48.24
16806;BME280;8520;50.102;20.010;2023-04-27T10:50:36;98507.38;;;11.46;47.19
16806;BME280;8520;50.102;20.010;2023-04-27T10:53:06;98518.94;;;10.71;45.19
16806;BME280;8520;50.102;20.010;2023-04-27T10:55:35;98512.06;;;10.52;45.07
16806;BME280;8520;50.102;20.010;2023-04-27T10:58:03;98513.97;;;11.69;44.05
16806;BME280;8520;50.102;20.010;2023-04-27T11:00:33;98528.06;;;10.62;45.01
16806;BME280;8520;50.102;20.010;2023-04-27T11:03:11;98542.75;;;10.06;46.98
16806;BME280;8520;50.102;20.010;2023-04-27T11:05:42;98529.03;;;11.33;46.23
16806;BME280;8520;50.102;20.010;2023-04-27T11:08:12;98537.63;;;10.91;45.91
16806;BME280;8520;50.102;20.010;2023-04-27T11:10:42;98542.34;;;10.22;48.21
16806;BME280;8520;50.102;20.010;2023-04-27T11:13:13;98551.31;;;9.09;52.14
16806;BME280;8520;50.102;20.010;2023-04-27T11:15:46;98560.84;;;8.89;53.02
16806;BME280;8520;50.102;20.010;2023-04-27T11:18:16;98558.91;;;8.44;53.27
16806;BME280;8520;50.102;20.010;2023-04-27T11:20:47;98563.09;;;9.09;52.78
16806;BME280;8520;50.102;20.010;2023-04-27T11:23:23;98548.53;;;9.27;52.41
16806;BME280;8520;50.102;20.010;2023-04-27T11:25:51;98568.09;;;9.71;51.26
16806;BME280;8520;50.102;20.010;2023-04-27T11:28:20;98567.47;;;9.43;51.29
16806;BME280;8520;50.102;20.010;2023-04-27T11:30:56;98553.84;;;8.33;52.54
16806;BME280;8520;50.102;20.010;2023-04-27T11:33:24;98546.03;;;9.38;50.66
16806;BME280;8520;50.102;20.010;2023-04-27T11:35:54;98549.44;;;9.15;51.43
16806;BME280;8520;50.102;20.010;2023-04-27T11:38:23;98545.19;;;9.89;50.59
16806;BME280;8520;50.102;20.010;2023-04-27T11:41:00;98545.56;;;9.40;51.13
16806;BME280;8520;50.102;20.010;2023-04-27T11:43:28;98544.34;;;10.22;49.74
16806;BME280;8520;50.102;20.010;2023-04-27T11:45:57;98537.72;;;10.28;49.25
16806;BME280;8520;50.102;20.010;2023-04-27T11:48:26;98542.84;;;10.74;48.17
16806;BME280;8520;50.102;20.010;2023-04-27T11:50:57;98546.19;;;10.01;49.28
16806;BME280;8520;50.102;20.010;2023-04-27T11:53:31;98548.41;;;9.54;50.84
16806;BME280;8520;50.102;20.010;2023-04-27T11:56:00;98541.19;;;10.67;49.45
16806;BME280;8520;50.102;20.010;2023-04-27T11:58:32;98541.72;;;10.03;49.88
16806;BME280;8520;50.102;20.010;2023-04-27T12:01:00;98538.69;;;10.93;48.81
16806;BME280;8520;50.102;20.010;2023-04-27T12:03:29;98526.19;;;11.28;48.45
16806;BME280;8520;50.102;20.010;2023-04-27T12:05:59;98521.88;;;12.58;46.11
16806;BME280;8520;50.102;20.010;2023-04-27T12:08:47;98530.41;;;13.43;45.07
16806;BME280;8520;50.102;20.010;2023-04-27T12:11:15;98526.06;;;13.31;44.59
16806;BME280;8520;50.102;20.010;2023-04-27T12:13:43;98523.06;;;13.72;43.21
16806;BME280;8520;50.102;20.010;2023-04-27T12:16:13;98522.25;;;13.60;43.34
16806;BME280;8520;50.102;20.010;2023-04-27T12:18:41;98529.50;;;13.20;44.93
16806;BME280;8520;50.102;20.010;2023-04-27T12:21:10;98528.31;;;13.27;45.06
16806;BME280;8520;50.102;20.010;2023-04-27T12:23:38;98540.03;;;13.16;44.96
16806;BME280;8520;50.102;20.010;2023-04-27T12:26:06;98533.38;;;13.34;44.83
16806;BME280;8520;50.102;20.010;2023-04-27T12:28:35;98536.25;;;12.62;45.99
16806;BME280;8520;50.102;20.010;2023-04-27T12:31:04;98537.22;;;12.59;46.07
16806;BME280;8520;50.102;20.010;2023-04-27T12:33:32;98535.22;;;11.98;46.55
16806;BME280;8520;50.102;20.010;2023-04-27T12:36:00;98549.50;;;10.29;50.06
16806;BME280;8520;50.102;20.010;2023-04-27T12:38:30;98554.47;;;9.68;51.68
16806;BME280;8520;50.102;20.010;2023-04-27T12:41:00;98544.34;;;9.41;52.95
16806;BME280;8520;50.102;20.010;2023-04-27T12:43:28;98542.00;;;10.83;50.93
16806;BME280;8520;50.102;20.010;2023-04-27T12:45:56;98538.59;;;11.52;49.56
16806;BME280;8520;50.102;20.010;2023-04-27T12:48:25;98540.28;;;11.44;49.60
16806;BME280;8520;50.102;20.010;2023-04-27T12:50:53;98543.81;;;11.15;48.81
16806;BME280;8520;50.102;20.010;2023-04-27T12:53:21;98540.34;;;11.85;47.98
16806;BME280;8520;50.102;20.010;2023-04-27T12:55:50;98540.69;;;11.93;47.30
16806;BME280;8520;50.102;20.010;2023-04-27T12:58:19;98546.63;;;10.62;48.18
16806;BME280;8520;50.102;20.010;2023-04-27T13:00:47;98529.00;;;11.83;47.49
16806;BME280;8520;50.102;20.010;2023-04-27T13:03:15;98529.47;;;12.89;45.85
16806;BME280;8520;50.102;20.010;2023-04-27T13:05:43;98525.88;;;13.40;44.47
16806;BME280;8520;50.102;20.010;2023-04-27T13:08:11;98519.13;;;13.90;42.99
16806;BME280;8520;50.102;20.010;2023-04-27T13:10:40;98524.31;;;13.71;42.72
16806;BME280;8520;50.102;20.010;2023-04-27T13:13:09;98529.31;;;14.04;42.64
16806;BME280;8520;50.102;20.010;2023-04-27T13:15:37;98518.84;;;13.82;43.52
16806;BME280;8520;50.102;20.010;2023-04-27T13:18:06;98530.88;;;13.36;44.09
16806;BME280;8520;50.102;20.010;2023-04-27T13:20:37;98539.81;;;12.01;47.07